createdAt,value
2023-11-20T00:00:53.629Z,22.60
2023-11-20T00:03:21.913Z,38.30
2023-11-20T00:05:49.632Z,24.10
2023-11-20T00:08:17.221Z,25.48
2023-11-20T00:10:46.150Z,22.30
2023-11-20T00:13:13.725Z,33.97
2023-11-20T00:15:41.430Z,30.73
2023-11-20T00:18:09.652Z,24.25
2023-11-20T00:20:38.744Z,24.33
2023-11-20T00:23:06.537Z,20.92
2023-11-20T00:25:34.211Z,13.75
2023-11-20T00:28:03.629Z,10.50
2023-11-20T00:30:31.352Z,9.73
2023-11-20T00:32:59.673Z,7.40
2023-11-20T00:35:27.332Z,10.13
2023-11-20T00:37:57.062Z,9.15
2023-11-20T00:40:24.674Z,11.98
2023-11-20T00:42:52.430Z,8.05
2023-11-20T00:45:21.454Z,11.77
2023-11-20T00:47:49.094Z,9.32
2023-11-20T00:50:16.826Z,11.35
2023-11-20T00:52:45.730Z,10.45
2023-11-20T00:55:13.417Z,7.88
2023-11-20T00:57:41.896Z,6.85
2023-11-20T01:00:12.805Z,8.88
2023-11-20T01:02:42.326Z,9.77
2023-11-20T01:05:10.645Z,8.15
2023-11-20T01:07:38.307Z,10.95
2023-11-20T01:10:07.129Z,10.50
2023-11-20T01:12:34.738Z,12.13
2023-11-20T01:15:04.273Z,8.02
2023-11-20T01:17:32.405Z,6.88
2023-11-20T01:20:01.382Z,8.70
2023-11-20T01:22:28.973Z,9.45
2023-11-20T01:24:56.553Z,11.20
2023-11-20T01:27:24.254Z,10.38
2023-11-20T01:29:52.237Z,8.15
2023-11-20T01:32:19.838Z,9.88
2023-11-20T01:34:47.417Z,10.93
2023-11-20T01:37:16.438Z,9.63
2023-11-20T01:39:44.097Z,10.73
2023-11-20T01:42:11.808Z,6.95
2023-11-20T01:44:39.399Z,8.95
2023-11-20T01:47:07.806Z,11.07
2023-11-20T01:49:35.468Z,10.02
2023-11-20T01:52:04.072Z,15.55
2023-11-20T01:54:34.232Z,14.15
2023-11-20T01:57:03.349Z,13.27
2023-11-20T01:59:32.076Z,10.43
2023-11-20T02:02:00.093Z,7.00
2023-11-20T02:04:29.675Z,10.23
2023-11-20T02:06:57.298Z,11.18
2023-11-20T02:09:24.936Z,8.07
2023-11-20T02:11:54.092Z,7.53
2023-11-20T02:14:21.735Z,10.43
2023-11-20T02:16:49.498Z,9.80
2023-11-20T02:19:17.869Z,9.85
2023-11-20T02:21:46.035Z,10.63
2023-11-20T02:24:14.684Z,14.70
2023-11-20T02:26:52.701Z,11.57
2023-11-20T02:29:26.932Z,10.85
2023-11-20T02:31:55.883Z,12.35
2023-11-20T02:34:23.710Z,14.95
2023-11-20T02:36:51.387Z,13.05
2023-11-20T02:39:19.172Z,13.27
2023-11-20T02:41:46.808Z,9.20
2023-11-20T02:44:14.558Z,11.32
2023-11-20T02:46:44.289Z,10.13
2023-11-20T02:49:13.351Z,11.73
2023-11-20T02:51:41.267Z,11.27
2023-11-20T02:54:08.960Z,9.77
2023-11-20T02:56:36.546Z,13.07
2023-11-20T02:59:04.583Z,10.90
2023-11-20T03:01:32.396Z,10.05
2023-11-20T03:04:00.128Z,15.35
2023-11-20T03:06:29.176Z,9.80
2023-11-20T03:08:56.818Z,14.90
2023-11-20T03:11:24.425Z,12.00
2023-11-20T03:13:51.971Z,11.00
2023-11-20T03:16:19.668Z,10.32
2023-11-20T03:18:47.512Z,10.70
2023-11-20T03:21:15.106Z,11.13
2023-11-20T03:23:44.070Z,11.77
2023-11-20T03:26:11.722Z,8.25
2023-11-20T03:28:40.227Z,7.35
2023-11-20T03:31:07.899Z,8.15
2023-11-20T03:33:35.576Z,16.60
2023-11-20T03:36:03.352Z,10.15
2023-11-20T03:38:30.959Z,10.63
2023-11-20T03:40:59.898Z,10.00
2023-11-20T03:43:29.392Z,10.55
2023-11-20T03:45:57.887Z,14.27
2023-11-20T03:48:25.514Z,15.05
2023-11-20T03:50:53.081Z,10.80
2023-11-20T03:53:20.860Z,12.27
2023-11-20T03:55:48.475Z,8.75
2023-11-20T03:58:18.151Z,11.48
2023-11-20T04:00:45.747Z,9.32
2023-11-20T04:03:13.856Z,13.75
2023-11-20T04:05:42.844Z,11.25
2023-11-20T04:08:10.763Z,11.80
2023-11-20T04:10:39.636Z,13.02
2023-11-20T04:13:08.283Z,9.73
2023-11-20T04:15:37.330Z,11.82
2023-11-20T04:18:05.006Z,12.40
2023-11-20T04:20:33.113Z,8.05
2023-11-20T04:23:01.134Z,12.50
2023-11-20T04:25:28.689Z,12.95
2023-11-20T04:27:56.334Z,11.55
2023-11-20T04:30:24.229Z,8.52
2023-11-20T04:32:53.177Z,13.55
2023-11-20T04:35:21.161Z,9.77
2023-11-20T04:37:48.743Z,9.70
2023-11-20T04:40:16.390Z,14.00
2023-11-20T04:42:45.270Z,15.23
2023-11-20T04:45:13.565Z,11.98
2023-11-20T04:47:41.716Z,12.27
2023-11-20T04:50:11.334Z,12.40
2023-11-20T04:52:39.035Z,9.52
2023-11-20T04:55:07.772Z,12.40
2023-11-20T04:57:36.299Z,9.57
2023-11-20T05:00:05.611Z,14.57
2023-11-20T05:02:33.309Z,10.65
2023-11-20T05:05:00.889Z,12.15
2023-11-20T05:07:30.414Z,13.80
2023-11-20T05:09:58.473Z,8.57
2023-11-20T05:12:28.248Z,10.27
2023-11-20T05:14:57.200Z,10.52
2023-11-20T05:17:24.738Z,11.93
2023-11-20T05:19:52.313Z,10.00
2023-11-20T05:22:19.968Z,16.67
2023-11-20T05:24:49.045Z,15.15
2023-11-20T05:27:16.682Z,10.35
2023-11-20T05:29:44.238Z,11.35
2023-11-20T05:32:11.864Z,15.85
2023-11-20T05:34:39.789Z,9.20
2023-11-20T05:37:07.575Z,15.93
2023-11-20T05:39:35.259Z,7.60
2023-11-20T05:42:04.464Z,11.15
2023-11-20T05:44:32.262Z,10.98
2023-11-20T05:46:59.872Z,11.15
2023-11-20T05:49:27.510Z,18.85
2023-11-20T05:51:55.148Z,13.50
2023-11-20T05:54:22.768Z,11.80
2023-11-20T05:56:50.354Z,10.27
2023-11-20T05:59:19.260Z,16.02
2023-11-20T06:01:46.914Z,10.45
2023-11-20T06:04:15.657Z,9.95
2023-11-20T06:06:43.327Z,9.93
2023-11-20T06:09:11.622Z,14.43
2023-11-20T06:11:39.407Z,7.25
2023-11-20T06:14:07.036Z,12.95
2023-11-20T06:16:35.967Z,9.60
2023-11-20T06:19:03.573Z,10.30
2023-11-20T06:21:31.192Z,9.80
2023-11-20T06:23:58.736Z,14.45
2023-11-20T06:26:27.107Z,11.25
2023-11-20T06:28:54.687Z,16.40
2023-11-20T06:31:22.337Z,11.15
2023-11-20T06:33:51.360Z,8.75
2023-11-20T06:36:18.936Z,8.93
2023-11-20T06:38:46.483Z,12.43
2023-11-20T06:41:18.024Z,14.30
2023-11-20T06:43:45.628Z,11.00
2023-11-20T06:46:17.990Z,8.45
2023-11-20T06:48:45.614Z,13.88
2023-11-20T06:51:14.761Z,16.80
2023-11-20T06:53:42.559Z,9.95
2023-11-20T06:56:17.919Z,8.07
2023-11-20T06:58:45.888Z,7.75
2023-11-20T07:01:14.834Z,10.25
2023-11-20T07:03:44.226Z,8.20
2023-11-20T07:06:14.799Z,9.60
2023-11-20T07:08:42.988Z,8.48
2023-11-20T07:11:10.742Z,6.63
2023-11-20T07:13:38.810Z,12.90
2023-11-20T07:16:07.355Z,14.40
2023-11-20T07:18:35.455Z,13.90
2023-11-20T07:21:03.576Z,12.50
2023-11-20T07:23:33.245Z,14.07
2023-11-20T07:26:00.786Z,16.27
2023-11-20T07:28:28.449Z,14.27
2023-11-20T07:30:56.062Z,14.57
2023-11-20T07:33:23.667Z,12.52
2023-11-20T07:35:52.207Z,11.75
2023-11-20T07:38:20.405Z,14.80
2023-11-20T07:40:49.663Z,15.38
2023-11-20T07:43:20.301Z,16.70
2023-11-20T07:45:48.609Z,16.63
2023-11-20T07:48:16.553Z,16.08
2023-11-20T07:50:44.131Z,17.92
2023-11-20T07:53:11.653Z,16.00
2023-11-20T07:55:39.239Z,18.75
2023-11-20T07:58:08.178Z,14.50
2023-11-20T08:00:35.824Z,17.20
2023-11-20T08:03:03.468Z,15.50
2023-11-20T08:05:35.650Z,16.63
2023-11-20T08:08:08.928Z,25.73
2023-11-20T08:10:36.456Z,11.68
2023-11-20T08:13:04.024Z,14.60
2023-11-20T08:15:33.237Z,16.77
2023-11-20T08:18:00.807Z,16.13
2023-11-20T08:20:30.339Z,18.27
2023-11-20T08:22:58.935Z,15.48
2023-11-20T08:25:26.564Z,17.33
2023-11-20T08:27:54.130Z,24.38
2023-11-20T08:30:21.701Z,18.15
2023-11-20T08:32:50.833Z,18.08
2023-11-20T08:35:18.494Z,18.83
2023-11-20T08:37:46.029Z,17.05
2023-11-20T08:40:15.880Z,20.52
2023-11-20T08:42:43.649Z,19.65
2023-11-20T08:45:11.747Z,22.75
2023-11-20T08:47:40.725Z,23.80
2023-11-20T08:50:11.434Z,21.83
2023-11-20T08:52:39.320Z,26.80
2023-11-20T08:55:08.268Z,27.17
2023-11-20T08:57:36.339Z,21.92
2023-11-20T09:00:05.412Z,19.75
2023-11-20T09:02:33.012Z,20.63
2023-11-20T09:05:00.553Z,11.20
2023-11-20T09:07:29.459Z,10.90
2023-11-20T09:09:57.030Z,7.63
2023-11-20T09:12:24.624Z,10.38
2023-11-20T09:14:52.236Z,8.35
2023-11-20T09:17:20.227Z,14.20
2023-11-20T09:19:47.754Z,16.13
2023-11-20T09:22:15.730Z,13.13
2023-11-20T09:24:52.785Z,14.20
2023-11-20T09:27:24.753Z,9.85
2023-11-20T09:29:52.318Z,7.85
2023-11-20T09:32:19.872Z,10.27
2023-11-20T09:34:47.426Z,8.90
2023-11-20T09:37:15.011Z,11.98
2023-11-20T09:39:47.358Z,13.75
2023-11-20T09:42:16.497Z,15.52
2023-11-20T09:44:47.192Z,7.35
2023-11-20T09:47:16.529Z,10.32
2023-11-20T09:49:46.245Z,10.38
2023-11-20T09:52:14.533Z,9.98
2023-11-20T09:54:44.877Z,14.45
2023-11-20T09:57:13.158Z,16.02
2023-11-20T09:59:40.797Z,6.95
2023-11-20T10:02:08.995Z,8.95
2023-11-20T10:04:37.146Z,8.32
2023-11-20T10:07:09.384Z,10.45
2023-11-20T10:09:37.912Z,13.48
2023-11-20T10:12:11.115Z,11.43
2023-11-20T10:14:38.893Z,10.25
2023-11-20T10:17:08.035Z,9.18
2023-11-20T10:19:36.802Z,6.70
2023-11-20T10:22:06.601Z,11.65
2023-11-20T10:24:34.252Z,11.70
2023-11-20T10:27:01.792Z,15.35
2023-11-20T10:29:30.640Z,15.00
2023-11-20T10:32:03.378Z,6.70
2023-11-20T10:34:32.130Z,6.78
2023-11-20T10:37:10.041Z,7.25
2023-11-20T10:39:38.413Z,6.10
2023-11-20T10:42:06.717Z,8.93
2023-11-20T10:44:37.167Z,8.13
2023-11-20T10:47:06.265Z,7.78
2023-11-20T10:49:35.231Z,6.60
2023-11-20T10:52:06.606Z,8.75
2023-11-20T10:54:41.131Z,8.65
2023-11-20T10:57:10.301Z,10.00
2023-11-20T10:59:40.498Z,13.23
2023-11-20T11:02:18.515Z,11.77
2023-11-20T11:04:47.476Z,14.48
2023-11-20T11:07:16.221Z,11.60
2023-11-20T11:09:45.873Z,17.33
2023-11-20T11:12:14.029Z,15.68
2023-11-20T11:14:42.993Z,19.73
2023-11-20T11:17:15.743Z,16.73
2023-11-20T11:19:48.073Z,27.35
2023-11-20T11:22:28.876Z,28.65
2023-11-20T11:24:59.668Z,36.75
2023-11-20T11:27:38.200Z,29.33
2023-11-20T11:30:11.308Z,36.92
2023-11-20T11:32:57.822Z,32.90
2023-11-20T11:35:44.093Z,26.95
2023-11-20T11:38:23.297Z,25.77
2023-11-20T11:41:11.540Z,26.02
2023-11-20T11:43:46.486Z,28.38
2023-11-20T11:46:15.515Z,29.60
2023-11-20T11:48:43.779Z,26.23
2023-11-20T11:51:20.918Z,24.33
2023-11-20T11:54:14.175Z,23.75
2023-11-20T11:56:58.293Z,23.45
2023-11-20T11:59:39.807Z,25.63
2023-11-20T12:02:10.534Z,23.48
2023-11-20T12:05:05.246Z,22.58
2023-11-20T12:07:49.074Z,25.23
2023-11-20T12:10:17.404Z,25.80
2023-11-20T12:13:09.462Z,24.63
2023-11-20T12:15:39.073Z,25.38
2023-11-20T12:18:14.413Z,25.15
2023-11-20T12:20:46.237Z,24.35
2023-11-20T12:23:21.168Z,23.88
2023-11-20T12:25:49.629Z,22.13
2023-11-20T12:28:17.572Z,24.08
2023-11-20T12:30:46.734Z,22.42
2023-11-20T12:33:15.698Z,30.63
2023-11-20T12:35:43.618Z,31.75
2023-11-20T12:38:11.319Z,32.90
2023-11-20T12:40:38.958Z,25.52
2023-11-20T12:43:06.526Z,23.65
2023-11-20T12:45:35.123Z,24.00
2023-11-20T12:48:02.671Z,24.40
2023-11-20T12:50:32.489Z,26.00
2023-11-20T12:53:01.228Z,29.00
2023-11-20T12:55:29.024Z,29.00
2023-11-20T12:57:56.910Z,31.48
2023-11-20T13:00:24.879Z,36.33
2023-11-20T13:02:57.010Z,34.83
2023-11-20T13:05:25.649Z,39.58
2023-11-20T13:08:00.556Z,33.13
2023-11-20T13:10:29.983Z,33.75
2023-11-20T13:13:05.985Z,30.10
2023-11-20T13:15:35.544Z,28.63
2023-11-20T13:18:03.983Z,27.00
2023-11-20T13:20:41.271Z,29.88
2023-11-20T13:23:26.955Z,28.45
2023-11-20T13:25:56.016Z,32.83
2023-11-20T13:28:28.628Z,21.08
2023-11-20T13:31:05.177Z,18.27
2023-11-20T13:33:33.055Z,29.40
2023-11-20T13:36:02.104Z,19.33
2023-11-20T13:38:32.868Z,31.50
2023-11-20T13:41:01.253Z,25.83
2023-11-20T13:43:29.420Z,19.55
2023-11-20T13:45:58.084Z,15.93
2023-11-20T13:48:26.463Z,16.77
2023-11-20T13:50:54.508Z,12.20
2023-11-20T13:53:23.829Z,12.77
2023-11-20T13:55:54.238Z,12.70
2023-11-20T13:58:25.475Z,7.63
2023-11-20T14:00:54.364Z,11.20
2023-11-20T14:03:22.492Z,10.20
2023-11-20T14:05:51.183Z,13.77
2023-11-20T14:08:19.632Z,13.48
2023-11-20T14:10:52.186Z,11.38
2023-11-20T14:13:21.896Z,9.93
2023-11-20T14:15:51.063Z,6.15
2023-11-20T14:18:18.692Z,5.25
2023-11-20T14:20:46.283Z,5.70
2023-11-20T14:23:13.945Z,7.00
2023-11-20T14:25:51.072Z,7.45
2023-11-20T14:28:30.292Z,8.80
2023-11-20T14:30:58.122Z,6.40
2023-11-20T14:33:25.738Z,5.35
2023-11-20T14:35:55.127Z,3.67
2023-11-20T14:38:22.814Z,3.38
2023-11-20T14:40:50.579Z,7.90
2023-11-20T14:43:19.360Z,4.18
2023-11-20T14:45:48.936Z,23.42
2023-11-20T14:48:17.038Z,25.48
2023-11-20T14:50:44.685Z,25.65
2023-11-20T14:53:12.262Z,12.88
2023-11-20T14:55:40.237Z,10.55
2023-11-20T14:58:07.834Z,7.93
2023-11-20T15:00:35.471Z,6.57
2023-11-20T15:03:04.440Z,5.70
2023-11-20T15:05:32.103Z,6.80
2023-11-20T15:07:59.665Z,4.10
2023-11-20T15:10:29.428Z,4.63
2023-11-20T15:12:58.017Z,4.53
2023-11-20T15:15:25.737Z,6.13
2023-11-20T15:17:53.345Z,3.37
2023-11-20T15:20:23.899Z,4.17
2023-11-20T15:22:52.639Z,16.40
2023-11-20T15:25:20.679Z,10.33
2023-11-20T15:27:48.385Z,12.70
2023-11-20T15:30:17.181Z,10.80
2023-11-20T15:32:45.227Z,11.97
2023-11-20T15:35:13.147Z,21.13
2023-11-20T15:37:42.208Z,14.70
2023-11-20T15:40:10.891Z,18.00
2023-11-20T15:42:38.874Z,15.80
2023-11-20T15:45:07.473Z,9.00
2023-11-20T15:47:35.340Z,8.07
2023-11-20T15:50:03.830Z,10.80
2023-11-20T15:52:31.421Z,13.00
2023-11-20T15:55:01.179Z,16.20
2023-11-20T15:57:29.254Z,12.98
2023-11-20T15:59:59.582Z,11.80
2023-11-20T16:02:29.478Z,20.20
2023-11-20T16:04:57.209Z,42.67
2023-11-20T16:07:24.980Z,50.20
2023-11-20T16:09:52.767Z,26.30
2023-11-20T16:12:22.041Z,26.93
2023-11-20T16:14:49.595Z,36.43
2023-11-20T16:17:17.246Z,34.70
2023-11-20T16:19:44.866Z,37.15
2023-11-20T16:22:12.481Z,35.70
2023-11-20T16:24:40.074Z,29.02
2023-11-20T16:27:07.606Z,29.05
2023-11-20T16:29:37.300Z,27.63
2023-11-20T16:32:05.898Z,26.33
2023-11-20T16:34:33.556Z,18.10
2023-11-20T16:37:01.121Z,20.85
2023-11-20T16:39:28.676Z,31.98
2023-11-20T16:41:56.510Z,34.47
2023-11-20T16:44:24.283Z,38.83
2023-11-20T16:46:54.712Z,60.47
2023-11-20T16:49:22.974Z,59.30
2023-11-20T16:51:50.559Z,54.75
2023-11-20T16:54:18.289Z,57.50
2023-11-20T16:56:45.834Z,69.28
2023-11-20T16:59:14.950Z,68.32
2023-11-20T17:01:43.303Z,67.80
2023-11-20T17:04:13.123Z,70.40
2023-11-20T17:06:40.860Z,58.90
2023-11-20T17:09:08.464Z,50.63
2023-11-20T17:11:36.049Z,55.53
2023-11-20T17:14:04.250Z,44.75
2023-11-20T17:16:32.508Z,43.88
2023-11-20T17:19:00.194Z,36.72
2023-11-20T17:21:29.123Z,25.97
2023-11-20T17:23:56.986Z,35.23
2023-11-20T17:26:24.785Z,21.55
2023-11-20T17:28:52.353Z,31.63
2023-11-20T17:31:20.163Z,47.85
2023-11-20T17:33:47.823Z,8.35
2023-11-20T17:36:16.590Z,6.90
2023-11-20T17:38:45.614Z,5.70
2023-11-20T17:41:13.205Z,12.90
2023-11-20T17:43:40.831Z,5.05
2023-11-20T17:46:09.049Z,14.52
2023-11-20T17:48:36.727Z,6.43
2023-11-20T17:51:04.676Z,9.68
2023-11-20T17:53:32.228Z,4.75
2023-11-20T17:56:05.260Z,3.63
2023-11-20T17:58:32.911Z,3.13
2023-11-20T18:01:01.234Z,2.85
2023-11-20T18:03:29.054Z,5.80
2023-11-20T18:05:56.845Z,7.72
2023-11-20T18:08:24.470Z,4.40
2023-11-20T18:10:52.075Z,3.55
2023-11-20T18:13:21.105Z,4.50
2023-11-20T18:15:48.811Z,3.10
2023-11-20T18:18:17.683Z,5.55
2023-11-20T18:20:45.493Z,2.95
2023-11-20T18:23:13.050Z,5.20
2023-11-20T18:25:40.672Z,5.50
2023-11-20T18:28:08.846Z,3.33
2023-11-20T18:30:37.758Z,6.15
2023-11-20T18:33:05.431Z,6.40
2023-11-20T18:35:33.861Z,8.00
2023-11-20T18:38:01.395Z,16.17
2023-11-20T18:40:29.038Z,15.48
2023-11-20T18:42:56.599Z,22.73
2023-11-20T18:45:24.198Z,24.38
2023-11-20T18:47:53.139Z,26.05
2023-11-20T18:50:20.810Z,42.40
2023-11-20T18:52:48.363Z,43.10
2023-11-20T18:55:16.379Z,40.83
2023-11-20T18:57:45.402Z,31.73
2023-11-20T19:00:16.330Z,43.43
2023-11-20T19:02:44.468Z,48.63
2023-11-20T19:05:14.494Z,43.50
2023-11-20T19:07:42.275Z,37.35
2023-11-20T19:10:10.973Z,37.33
2023-11-20T19:12:42.538Z,43.10
2023-11-20T19:15:11.204Z,41.57
2023-11-20T19:17:39.097Z,44.00
2023-11-20T19:20:11.559Z,47.07
2023-11-20T19:22:40.602Z,45.43
2023-11-20T19:25:11.863Z,38.05
2023-11-20T19:27:39.907Z,54.67
2023-11-20T19:30:09.571Z,44.30
2023-11-20T19:32:37.979Z,49.37
2023-11-20T19:35:06.371Z,32.83
2023-11-20T19:37:34.006Z,43.28
2023-11-20T19:40:05.747Z,37.88
2023-11-20T19:42:33.338Z,43.03
2023-11-20T19:45:00.934Z,45.47
2023-11-20T19:47:28.566Z,54.90
2023-11-20T19:49:57.417Z,50.80
2023-11-20T19:52:25.154Z,50.70
2023-11-20T19:54:53.509Z,48.70
2023-11-20T19:57:22.386Z,49.83
2023-11-20T19:59:49.949Z,50.10
2023-11-20T20:02:17.545Z,51.23
2023-11-20T20:04:45.209Z,48.17
2023-11-20T20:07:12.873Z,43.57
2023-11-20T20:09:40.465Z,36.73
2023-11-20T20:12:09.510Z,42.87
2023-11-20T20:14:40.004Z,50.95
2023-11-20T20:17:10.806Z,47.63
2023-11-20T20:19:44.711Z,41.87
2023-11-20T20:22:13.167Z,39.30
2023-11-20T20:24:42.717Z,42.03
2023-11-20T20:27:10.298Z,37.00
2023-11-20T20:29:40.251Z,40.20
2023-11-20T20:32:09.274Z,48.53
2023-11-20T20:34:38.038Z,48.77
2023-11-20T20:37:09.106Z,37.17
2023-11-20T20:39:39.847Z,43.55
2023-11-20T20:42:08.763Z,37.35
2023-11-20T20:44:39.707Z,41.53
2023-11-20T20:47:09.101Z,38.97
2023-11-20T20:49:38.848Z,34.50
2023-11-20T20:52:07.318Z,33.37
2023-11-20T20:54:36.117Z,35.93
2023-11-20T20:57:05.172Z,33.38
2023-11-20T20:59:32.814Z,31.90
2023-11-20T21:02:01.893Z,32.10
2023-11-20T21:04:30.031Z,31.40
2023-11-20T21:06:58.220Z,30.63
2023-11-20T21:09:26.162Z,27.03
2023-11-20T21:11:56.887Z,33.03
2023-11-20T21:14:26.837Z,29.83
2023-11-20T21:16:55.715Z,30.30
2023-11-20T21:19:24.877Z,17.45
2023-11-20T21:21:52.910Z,15.43
2023-11-20T21:24:20.495Z,14.47
2023-11-20T21:26:48.278Z,17.57
2023-11-20T21:29:16.087Z,18.03
2023-11-20T21:31:46.499Z,22.63
2023-11-20T21:34:14.371Z,10.30
2023-11-20T21:36:43.290Z,12.87
2023-11-20T21:39:12.815Z,14.73
2023-11-20T21:41:41.084Z,13.77
2023-11-20T21:44:09.044Z,13.37
2023-11-20T21:46:38.856Z,14.07
2023-11-20T21:49:07.025Z,12.23
2023-11-20T21:51:35.138Z,14.90
2023-11-20T21:54:04.800Z,8.53
2023-11-20T21:56:32.354Z,13.77
2023-11-20T21:58:59.902Z,10.00
2023-11-20T22:01:27.511Z,12.80
2023-11-20T22:03:55.580Z,11.70
2023-11-20T22:06:23.194Z,12.83
2023-11-20T22:08:51.418Z,10.10
2023-11-20T22:11:21.084Z,10.40
2023-11-20T22:13:48.865Z,11.47
2023-11-20T22:16:17.592Z,10.30
2023-11-20T22:18:45.844Z,11.87
2023-11-20T22:21:13.603Z,9.20
2023-11-20T22:23:42.146Z,11.87
2023-11-20T22:26:10.105Z,9.43
2023-11-20T22:28:39.352Z,9.40
2023-11-20T22:31:09.025Z,4.97
2023-11-20T22:33:36.797Z,5.57
2023-11-20T22:36:06.503Z,4.50
2023-11-20T22:38:34.540Z,5.20
2023-11-20T22:41:02.970Z,3.10
2023-11-20T22:43:30.789Z,4.03
2023-11-20T22:46:00.440Z,3.63
2023-11-20T22:48:28.046Z,3.63
2023-11-20T22:50:57.030Z,3.90
2023-11-20T22:53:24.799Z,3.13
2023-11-20T22:55:52.415Z,3.73
2023-11-20T22:58:20.043Z,3.40
2023-11-20T23:00:50.421Z,3.97
2023-11-20T23:03:20.753Z,4.10
2023-11-20T23:05:48.656Z,3.57
2023-11-20T23:08:16.400Z,3.23
2023-11-20T23:10:45.216Z,3.90
2023-11-20T23:13:13.673Z,2.70
2023-11-20T23:15:42.067Z,2.67
2023-11-20T23:18:09.837Z,4.13
2023-11-20T23:20:38.918Z,3.00
2023-11-20T23:23:06.471Z,4.47
2023-11-20T23:25:34.053Z,3.30
2023-11-20T23:28:02.243Z,3.53
2023-11-20T23:30:31.402Z,2.60
2023-11-20T23:33:00.453Z,2.50
2023-11-20T23:35:28.338Z,3.30
2023-11-20T23:37:57.295Z,6.17
2023-11-20T23:40:25.448Z,4.77
2023-11-20T23:42:53.321Z,5.70
2023-11-20T23:45:20.965Z,6.80
2023-11-20T23:47:48.571Z,9.10
2023-11-20T23:50:17.708Z,10.37
2023-11-20T23:52:45.451Z,9.70
2023-11-20T23:55:14.855Z,8.73
2023-11-20T23:57:42.753Z,8.30
